createdAt,value
2022-08-30T00:01:14.182Z,3.77
2022-08-30T00:03:46.443Z,1.77
2022-08-30T00:06:19.682Z,2.77
2022-08-30T00:08:46.545Z,2.70
2022-08-30T00:11:16.682Z,2.40
2022-08-30T00:13:45.723Z,3.53
2022-08-30T00:16:13.320Z,1.83
2022-08-30T00:18:41.121Z,1.77
2022-08-30T00:21:07.878Z,1.70
2022-08-30T00:23:34.397Z,2.30
2022-08-30T00:26:02.582Z,2.30
2022-08-30T00:28:30.208Z,1.77
2022-08-30T00:30:56.710Z,2.17
2022-08-30T00:33:23.619Z,2.73
2022-08-30T00:35:50.525Z,2.60
2022-08-30T00:38:17.159Z,3.13
2022-08-30T00:40:45.159Z,2.47
2022-08-30T00:43:16.700Z,2.63
2022-08-30T00:45:46.478Z,2.63
2022-08-30T00:48:13.266Z,3.17
2022-08-30T00:50:49.109Z,3.03
2022-08-30T00:53:26.749Z,2.50
2022-08-30T00:55:55.032Z,3.53
2022-08-30T00:58:27.637Z,4.03
2022-08-30T01:00:57.037Z,2.57
2022-08-30T01:03:24.462Z,2.70
2022-08-30T01:05:51.831Z,3.17
2022-08-30T01:08:22.059Z,1.90
2022-08-30T01:10:50.718Z,3.27
2022-08-30T01:13:18.051Z,2.47
2022-08-30T01:15:46.293Z,3.37
2022-08-30T01:18:14.402Z,3.83
2022-08-30T01:21:10.311Z,3.80
2022-08-30T01:23:41.301Z,2.83
2022-08-30T01:26:10.355Z,2.57
2022-08-30T01:28:40.491Z,2.80
2022-08-30T01:31:08.051Z,3.50
2022-08-30T01:33:38.299Z,2.40
2022-08-30T01:36:11.299Z,3.77
2022-08-30T01:38:53.810Z,3.37
2022-08-30T01:41:31.418Z,3.70
2022-08-30T01:44:00.762Z,3.33
2022-08-30T01:46:36.032Z,2.40
2022-08-30T01:49:06.843Z,2.80
2022-08-30T01:51:33.572Z,2.73
2022-08-30T01:54:00.779Z,3.17
2022-08-30T01:56:29.287Z,3.83
2022-08-30T01:59:01.811Z,4.03
2022-08-30T02:01:32.589Z,2.80
2022-08-30T02:03:59.538Z,3.00
2022-08-30T02:06:26.680Z,4.20
2022-08-30T02:08:53.539Z,3.07
2022-08-30T02:11:19.990Z,3.63
2022-08-30T02:13:46.822Z,3.53
2022-08-30T02:16:17.828Z,3.10
2022-08-30T02:18:45.232Z,4.13
2022-08-30T02:21:13.332Z,4.67
2022-08-30T02:23:41.490Z,3.00
2022-08-30T02:26:08.686Z,2.83
2022-08-30T02:28:35.617Z,5.23
2022-08-30T02:31:09.872Z,3.30
2022-08-30T02:33:36.594Z,3.90
2022-08-30T02:36:08.846Z,4.13
2022-08-30T02:38:35.772Z,3.77
2022-08-30T02:41:02.668Z,3.60
2022-08-30T02:43:29.174Z,3.10
2022-08-30T02:45:56.040Z,3.23
2022-08-30T02:48:22.578Z,3.23
2022-08-30T02:50:51.917Z,3.17
2022-08-30T02:53:21.016Z,3.63
2022-08-30T02:55:48.472Z,4.33
2022-08-30T02:58:15.557Z,3.53
2022-08-30T03:00:42.764Z,5.20
2022-08-30T03:03:09.510Z,3.50
2022-08-30T03:05:39.778Z,3.20
2022-08-30T03:08:07.874Z,4.27
2022-08-30T03:10:34.574Z,3.67
2022-08-30T03:13:01.286Z,4.30
2022-08-30T03:15:28.067Z,3.23
2022-08-30T03:17:55.033Z,3.90
2022-08-30T03:20:24.495Z,4.10
2022-08-30T03:22:51.883Z,4.23
2022-08-30T03:25:20.717Z,4.37
2022-08-30T03:27:47.846Z,5.27
2022-08-30T03:30:14.442Z,4.87
2022-08-30T03:32:43.127Z,4.60
2022-08-30T03:35:10.528Z,6.00
2022-08-30T03:37:37.237Z,4.27
2022-08-30T03:40:09.162Z,4.93
2022-08-30T03:42:37.868Z,3.43
2022-08-30T03:45:08.389Z,4.17
2022-08-30T03:47:34.933Z,4.53
2022-08-30T03:50:02.067Z,4.43
2022-08-30T03:52:28.538Z,4.70
2022-08-30T03:54:56.746Z,3.90
2022-08-30T03:57:24.548Z,8.07
2022-08-30T03:59:52.029Z,8.63
2022-08-30T04:02:19.125Z,6.33
2022-08-30T04:04:45.646Z,4.43
2022-08-30T04:07:12.751Z,4.47
2022-08-30T04:09:39.403Z,3.40
2022-08-30T04:12:06.027Z,5.17
2022-08-30T04:14:32.529Z,3.93
2022-08-30T04:16:59.166Z,4.40
2022-08-30T04:19:25.656Z,5.37
2022-08-30T04:21:53.431Z,4.53
2022-08-30T04:24:19.980Z,3.90
2022-08-30T04:26:46.690Z,4.13
2022-08-30T04:29:16.883Z,3.90
2022-08-30T04:31:44.434Z,5.30
2022-08-30T04:34:12.854Z,5.03
2022-08-30T04:36:39.841Z,4.13
2022-08-30T04:39:06.915Z,6.13
2022-08-30T04:41:33.988Z,4.90
2022-08-30T04:44:03.494Z,3.83
2022-08-30T04:46:30.447Z,4.10
2022-08-30T04:48:57.006Z,4.03
2022-08-30T04:51:23.437Z,4.33
2022-08-30T04:53:49.957Z,4.60
2022-08-30T04:56:22.150Z,4.20
2022-08-30T04:58:50.530Z,4.77
2022-08-30T05:01:23.893Z,4.10
2022-08-30T05:03:59.524Z,4.30
2022-08-30T05:06:28.194Z,6.97
2022-08-30T05:08:55.831Z,4.27
2022-08-30T05:11:23.312Z,5.07
2022-08-30T05:13:50.022Z,5.10
2022-08-30T05:16:18.634Z,5.77
2022-08-30T05:18:47.726Z,5.10
2022-08-30T05:21:18.176Z,4.83
2022-08-30T05:23:46.103Z,6.20
2022-08-30T05:26:19.310Z,8.47
2022-08-30T05:28:46.150Z,7.13
2022-08-30T05:31:16.123Z,6.30
2022-08-30T05:33:43.768Z,6.87
2022-08-30T05:36:14.441Z,6.63
2022-08-30T05:38:41.622Z,6.17
2022-08-30T05:41:10.866Z,4.97
2022-08-30T05:43:38.758Z,6.20
2022-08-30T05:46:08.607Z,8.07
2022-08-30T05:48:37.046Z,5.83
2022-08-30T05:51:15.348Z,7.07
2022-08-30T05:53:42.621Z,7.07
2022-08-30T05:56:13.721Z,6.57
2022-08-30T05:58:41.783Z,7.57
2022-08-30T06:01:24.751Z,8.00
2022-08-30T06:03:54.692Z,6.23
2022-08-30T06:06:21.722Z,6.17
2022-08-30T06:08:49.016Z,7.70
2022-08-30T06:11:17.798Z,6.70
2022-08-30T06:13:44.369Z,6.77
2022-08-30T06:16:16.112Z,6.60
2022-08-30T06:18:42.969Z,7.20
2022-08-30T06:21:16.505Z,7.03
2022-08-30T06:23:44.626Z,11.47
2022-08-30T06:26:14.193Z,8.67
2022-08-30T06:28:41.509Z,6.63
2022-08-30T06:31:10.370Z,5.60
2022-08-30T06:33:37.054Z,7.33
2022-08-30T06:36:06.271Z,7.03
2022-08-30T06:38:32.962Z,7.03
2022-08-30T06:40:59.455Z,7.47
2022-08-30T06:43:26.055Z,9.53
2022-08-30T06:45:53.394Z,7.33
2022-08-30T06:48:19.966Z,8.20
2022-08-30T06:50:53.800Z,6.87
2022-08-30T06:53:20.405Z,8.77
2022-08-30T06:55:56.253Z,11.57
2022-08-30T06:58:23.145Z,13.07
2022-08-30T07:00:49.571Z,12.07
2022-08-30T07:03:16.200Z,9.83
2022-08-30T07:05:42.853Z,11.93
2022-08-30T07:08:09.430Z,10.60
2022-08-30T07:10:39.336Z,11.70
2022-08-30T07:13:05.779Z,11.53
2022-08-30T07:15:38.063Z,9.57
2022-08-30T07:18:23.625Z,10.30
2022-08-30T07:20:50.059Z,9.87
2022-08-30T07:23:16.935Z,9.80
2022-08-30T07:25:43.717Z,10.40
2022-08-30T07:28:10.888Z,11.03
2022-08-30T07:30:38.780Z,8.63
2022-08-30T07:33:05.373Z,9.77
2022-08-30T07:35:32.060Z,8.40
2022-08-30T07:37:59.256Z,10.77
2022-08-30T07:40:26.582Z,11.40
2022-08-30T07:42:53.683Z,9.93
2022-08-30T07:45:20.803Z,11.23
2022-08-30T07:47:47.310Z,9.37
2022-08-30T07:50:14.094Z,8.30
2022-08-30T07:52:40.858Z,7.07
2022-08-30T07:55:07.913Z,7.10
2022-08-30T07:57:34.621Z,7.17
2022-08-30T08:00:04.019Z,7.00
2022-08-30T08:02:40.610Z,7.20
2022-08-30T08:05:08.274Z,8.17
2022-08-30T08:07:35.450Z,7.83
2022-08-30T08:10:02.813Z,8.03
2022-08-30T08:12:29.984Z,8.07
2022-08-30T08:14:56.441Z,7.33
2022-08-30T08:17:22.900Z,7.67
2022-08-30T08:19:49.381Z,21.87
2022-08-30T08:22:23.332Z,8.23
2022-08-30T08:24:50.154Z,6.47
2022-08-30T08:27:17.004Z,6.77
2022-08-30T08:29:45.252Z,6.10
2022-08-30T08:32:12.177Z,6.87
2022-08-30T08:34:38.718Z,6.07
2022-08-30T08:37:05.179Z,7.47
2022-08-30T08:39:31.969Z,7.17
2022-08-30T08:42:20.415Z,7.43
2022-08-30T08:45:13.056Z,6.97
2022-08-30T08:48:01.473Z,7.53
2022-08-30T08:50:31.404Z,7.80
2022-08-30T08:53:46.402Z,7.43
2022-08-30T08:56:17.346Z,8.30
2022-08-30T08:58:53.170Z,10.40
2022-08-30T09:01:23.964Z,7.73
2022-08-30T09:03:51.877Z,10.03
2022-08-30T09:06:56.549Z,9.67
2022-08-30T09:09:42.920Z,9.53
2022-08-30T09:12:11.647Z,12.07
2022-08-30T09:14:46.627Z,11.30
2022-08-30T09:17:16.174Z,9.50
2022-08-30T09:19:45.710Z,10.97
2022-08-30T09:22:38.748Z,20.73
2022-08-30T09:25:13.123Z,12.10
2022-08-30T09:27:45.596Z,11.43
2022-08-30T09:30:21.987Z,11.90
2022-08-30T09:33:02.211Z,13.13
2022-08-30T09:35:42.296Z,18.37
2022-08-30T09:38:13.157Z,22.13
2022-08-30T09:40:53.435Z,18.73
2022-08-30T09:43:23.475Z,17.93
2022-08-30T09:46:01.238Z,17.70
2022-08-30T09:48:40.613Z,17.87
2022-08-30T09:51:10.208Z,17.37
2022-08-30T09:54:16.735Z,15.63
2022-08-30T09:56:49.088Z,15.33
2022-08-30T09:59:34.273Z,12.20
2022-08-30T10:02:00.726Z,8.57
2022-08-30T10:04:44.134Z,8.67
2022-08-30T10:07:18.199Z,6.50
2022-08-30T10:10:01.153Z,7.20
2022-08-30T10:12:59.379Z,6.70
2022-08-30T10:15:32.358Z,6.97
2022-08-30T10:18:05.049Z,5.07
2022-08-30T10:20:47.289Z,7.00
2022-08-30T10:23:25.004Z,4.47
2022-08-30T10:26:22.820Z,4.53
2022-08-30T10:29:00.056Z,4.20
2022-08-30T10:31:40.466Z,4.83
2022-08-30T10:34:14.041Z,4.00
2022-08-30T10:36:46.818Z,4.50
2022-08-30T10:39:22.119Z,4.90
2022-08-30T10:42:11.628Z,4.00
2022-08-30T10:44:45.361Z,4.43
2022-08-30T10:47:26.949Z,3.90
2022-08-30T10:50:10.697Z,5.33
2022-08-30T10:52:52.054Z,4.10
2022-08-30T10:55:30.107Z,5.60
2022-08-30T10:58:02.723Z,6.17
2022-08-30T11:00:39.147Z,4.20
2022-08-30T11:03:36.247Z,4.73
2022-08-30T11:06:14.156Z,4.80
2022-08-30T11:09:08.542Z,5.90
2022-08-30T11:11:51.884Z,4.20
2022-08-30T11:14:20.759Z,5.10
2022-08-30T11:16:54.875Z,4.00
2022-08-30T11:19:32.364Z,4.83
2022-08-30T11:22:24.128Z,4.40
2022-08-30T11:25:14.246Z,5.40
2022-08-30T11:27:45.820Z,4.27
2022-08-30T11:30:24.526Z,3.50
2022-08-30T11:33:23.965Z,4.20
2022-08-30T11:35:53.670Z,4.50
2022-08-30T11:38:40.064Z,5.53
2022-08-30T11:41:11.575Z,4.67
2022-08-30T11:43:40.174Z,4.43
2022-08-30T11:46:21.016Z,4.80
2022-08-30T11:49:08.135Z,6.27
2022-08-30T11:51:44.071Z,4.63
2022-08-30T11:54:52.906Z,4.10
2022-08-30T11:57:30.126Z,4.10
2022-08-30T12:00:25.825Z,5.80
2022-08-30T12:02:55.899Z,3.67
2022-08-30T12:05:48.041Z,4.07
2022-08-30T12:08:20.512Z,3.53
2022-08-30T12:10:48.883Z,4.00
2022-08-30T12:13:34.111Z,3.70
2022-08-30T12:16:05.155Z,3.00
2022-08-30T12:18:55.396Z,2.87
2022-08-30T12:21:22.467Z,2.80
2022-08-30T12:24:16.280Z,2.87
2022-08-30T12:26:45.005Z,3.90
2022-08-30T12:29:26.304Z,2.13
2022-08-30T12:32:00.366Z,2.77
2022-08-30T12:34:33.152Z,2.60
2022-08-30T12:37:08.465Z,2.60
2022-08-30T12:39:41.861Z,3.03
2022-08-30T12:42:22.629Z,2.90
2022-08-30T12:44:51.814Z,2.97
2022-08-30T12:47:26.711Z,2.97
2022-08-30T12:49:55.063Z,2.50
2022-08-30T12:52:38.662Z,3.20
2022-08-30T12:55:17.393Z,2.00
2022-08-30T12:58:01.306Z,3.93
2022-08-30T13:00:41.987Z,2.50
2022-08-30T13:03:39.221Z,2.50
2022-08-30T13:06:10.042Z,3.90
2022-08-30T13:08:51.788Z,2.60
2022-08-30T13:11:21.277Z,2.00
2022-08-30T13:13:52.294Z,2.00
2022-08-30T13:16:22.835Z,2.57
2022-08-30T13:18:55.512Z,2.40
2022-08-30T13:21:33.735Z,2.40
2022-08-30T13:24:04.513Z,3.23
2022-08-30T13:26:34.010Z,2.38
2022-08-30T13:29:05.088Z,2.00
2022-08-30T13:31:37.618Z,2.85
2022-08-30T13:34:05.055Z,1.73
2022-08-30T13:36:35.505Z,2.53
2022-08-30T13:39:03.399Z,1.90
2022-08-30T13:41:34.449Z,2.03
2022-08-30T13:44:13.105Z,4.55
2022-08-30T13:46:44.769Z,2.03
2022-08-30T13:52:20.508Z,1.90
2022-08-30T13:54:50.392Z,2.13
2022-08-30T13:57:53.677Z,2.83
2022-08-30T14:00:12.525Z,2.50
2022-08-30T14:02:45.401Z,1.90
2022-08-30T14:05:31.094Z,2.42
2022-08-30T14:08:05.138Z,2.03
2022-08-30T14:10:37.847Z,2.67
2022-08-30T14:13:12.431Z,2.20
2022-08-30T14:15:41.566Z,3.10
2022-08-30T14:18:08.932Z,2.65
2022-08-30T14:20:38.502Z,3.47
2022-08-30T14:23:07.611Z,2.55
2022-08-30T14:25:37.716Z,2.45
2022-08-30T14:28:07.917Z,1.90
2022-08-30T14:30:36.674Z,2.30
2022-08-30T14:33:03.629Z,2.40
2022-08-30T14:35:30.298Z,3.05
2022-08-30T14:37:57.280Z,2.50
2022-08-30T14:40:23.979Z,4.40
2022-08-30T14:42:50.492Z,3.20
2022-08-30T14:45:18.281Z,2.45
2022-08-30T14:47:46.131Z,4.82
2022-08-30T14:50:14.413Z,2.20
2022-08-30T14:52:41.261Z,4.80
2022-08-30T14:55:12.728Z,4.20
2022-08-30T14:57:39.478Z,1.67
2022-08-30T15:00:08.981Z,1.83
2022-08-30T15:02:35.462Z,2.03
2022-08-30T15:05:04.186Z,2.13
2022-08-30T15:07:35.338Z,1.60
2022-08-30T15:10:02.769Z,2.57
2022-08-30T15:12:29.248Z,2.00
2022-08-30T15:14:56.145Z,2.17
2022-08-30T15:17:22.570Z,3.47
2022-08-30T15:19:49.259Z,2.70
2022-08-30T15:22:16.461Z,2.23
2022-08-30T15:24:43.632Z,2.37
2022-08-30T15:27:15.528Z,3.63
2022-08-30T15:29:42.235Z,1.87
2022-08-30T15:32:08.815Z,3.90
2022-08-30T15:34:35.913Z,2.20
2022-08-30T15:37:02.564Z,2.27
2022-08-30T15:39:29.656Z,2.73
2022-08-30T15:42:00.630Z,3.57
2022-08-30T15:44:28.417Z,6.60
2022-08-30T15:46:55.529Z,1.63
2022-08-30T15:49:23.706Z,1.40
2022-08-30T15:51:54.405Z,2.10
2022-08-30T15:54:23.488Z,2.50
2022-08-30T15:56:51.647Z,1.90
2022-08-30T15:59:19.315Z,1.50
2022-08-30T16:01:47.725Z,3.93
2022-08-30T16:04:17.092Z,1.90
2022-08-30T16:06:45.457Z,1.43
2022-08-30T16:09:12.237Z,1.43
2022-08-30T16:11:38.893Z,2.90
2022-08-30T16:14:06.751Z,1.93
2022-08-30T16:16:34.934Z,1.83
2022-08-30T16:19:02.305Z,1.40
2022-08-30T16:21:31.354Z,1.67
2022-08-30T16:24:01.519Z,1.67
2022-08-30T16:26:29.574Z,2.50
2022-08-30T16:28:56.499Z,1.30
2022-08-30T16:31:24.277Z,1.23
2022-08-30T16:33:53.150Z,6.10
2022-08-30T16:36:21.772Z,2.20
2022-08-30T16:38:49.075Z,2.53
2022-08-30T16:41:21.408Z,1.30
2022-08-30T16:43:49.410Z,1.73
2022-08-30T16:46:22.598Z,1.30
2022-08-30T16:48:49.940Z,1.30
2022-08-30T16:51:19.593Z,1.37
2022-08-30T16:53:46.721Z,1.93
2022-08-30T16:56:21.256Z,1.57
2022-08-30T16:58:48.793Z,1.60
2022-08-30T17:01:18.952Z,1.60
2022-08-30T17:03:49.612Z,1.57
2022-08-30T17:06:17.542Z,1.37
2022-08-30T17:08:47.131Z,2.10
2022-08-30T17:11:14.637Z,2.10
2022-08-30T17:13:42.209Z,2.90
2022-08-30T17:16:11.440Z,1.37
2022-08-30T17:18:38.299Z,3.40
2022-08-30T17:21:05.462Z,1.20
2022-08-30T17:23:34.869Z,3.87
2022-08-30T17:26:02.753Z,1.70
2022-08-30T17:28:29.305Z,1.30
2022-08-30T17:30:56.338Z,3.00
2022-08-30T17:33:23.111Z,3.27
2022-08-30T17:35:50.109Z,1.50
2022-08-30T17:38:17.206Z,1.63
2022-08-30T17:40:43.954Z,1.93
2022-08-30T17:43:10.874Z,1.90
2022-08-30T17:45:37.656Z,1.53
2022-08-30T17:48:06.974Z,1.77
2022-08-30T17:50:36.731Z,1.47
2022-08-30T17:53:03.774Z,1.77
2022-08-30T17:55:30.852Z,1.93
2022-08-30T17:57:57.465Z,2.17
2022-08-30T18:00:28.834Z,2.40
2022-08-30T18:02:56.288Z,2.23
2022-08-30T18:05:24.583Z,1.97
2022-08-30T18:07:51.852Z,2.47
2022-08-30T18:10:18.686Z,3.73
2022-08-30T18:12:45.179Z,2.43
2022-08-30T18:15:12.811Z,2.17
2022-08-30T18:17:44.458Z,1.87
2022-08-30T18:20:11.574Z,2.27
2022-08-30T18:22:38.099Z,2.97
2022-08-30T18:25:05.896Z,1.23
2022-08-30T18:27:32.407Z,1.93
2022-08-30T18:29:59.238Z,2.70
2022-08-30T18:32:35.923Z,1.20
2022-08-30T18:35:05.592Z,1.77
2022-08-30T18:37:32.347Z,1.50
2022-08-30T18:39:59.483Z,1.50
2022-08-30T18:42:27.609Z,1.23
2022-08-30T18:44:54.267Z,3.50
2022-08-30T18:47:23.153Z,1.87
2022-08-30T18:49:50.295Z,1.30
2022-08-30T18:52:17.084Z,2.10
2022-08-30T18:54:52.602Z,1.90
2022-08-30T18:57:20.773Z,3.57
2022-08-30T18:59:48.725Z,2.37
2022-08-30T19:02:17.494Z,2.20
2022-08-30T19:04:45.452Z,2.00
2022-08-30T19:07:15.242Z,2.70
2022-08-30T19:09:42.590Z,3.03
2022-08-30T19:12:11.611Z,2.63
2022-08-30T19:14:38.985Z,3.20
2022-08-30T19:17:07.243Z,3.70
2022-08-30T19:19:35.251Z,2.30
2022-08-30T19:22:12.303Z,2.50
2022-08-30T19:24:38.979Z,1.83
2022-08-30T19:27:05.533Z,2.13
2022-08-30T19:29:32.045Z,1.70
2022-08-30T19:31:58.526Z,2.07
2022-08-30T19:34:25.157Z,3.53
2022-08-30T19:36:52.313Z,3.23
2022-08-30T19:39:19.358Z,1.83
2022-08-30T19:41:46.821Z,2.13
2022-08-30T19:44:13.665Z,2.00
2022-08-30T19:46:40.201Z,2.17
2022-08-30T19:49:10.191Z,3.27
2022-08-30T19:51:38.810Z,3.13
2022-08-30T19:54:14.646Z,1.93
2022-08-30T19:56:41.277Z,1.83
2022-08-30T19:59:07.738Z,2.43
2022-08-30T20:01:34.554Z,2.37
2022-08-30T20:04:03.326Z,2.53
2022-08-30T20:06:30.807Z,2.80
2022-08-30T20:08:59.808Z,3.33
2022-08-30T20:11:28.035Z,2.07
2022-08-30T20:13:55.128Z,2.23
2022-08-30T20:16:33.037Z,4.40
2022-08-30T20:19:05.545Z,2.57
2022-08-30T20:21:32.657Z,2.80
2022-08-30T20:24:00.732Z,2.83
2022-08-30T20:26:33.612Z,3.90
2022-08-30T20:29:02.468Z,4.10
2022-08-30T20:31:29.271Z,2.63
2022-08-30T20:33:55.831Z,4.60
2022-08-30T20:36:22.277Z,2.57
2022-08-30T20:38:48.952Z,1.70
2022-08-30T20:41:17.182Z,2.80
2022-08-30T20:43:45.183Z,2.20
2022-08-30T20:46:20.131Z,2.07
2022-08-30T20:48:47.698Z,2.83
2022-08-30T20:51:17.863Z,2.43
2022-08-30T20:53:45.437Z,2.83
2022-08-30T20:56:13.713Z,3.03
2022-08-30T20:58:40.217Z,2.83
2022-08-30T21:01:09.519Z,1.90
2022-08-30T21:03:36.643Z,3.23
2022-08-30T21:06:03.375Z,1.80
2022-08-30T21:08:30.431Z,4.80
2022-08-30T21:10:57.009Z,2.20
2022-08-30T21:13:23.554Z,1.87
2022-08-30T21:15:54.774Z,1.93
2022-08-30T21:18:22.995Z,1.60
2022-08-30T21:20:49.440Z,2.67
2022-08-30T21:23:17.119Z,2.37
2022-08-30T21:25:44.094Z,3.97
2022-08-30T21:28:10.798Z,2.97
2022-08-30T21:30:37.874Z,1.97
2022-08-30T21:33:07.185Z,2.33
2022-08-30T21:35:53.230Z,2.47
2022-08-30T21:38:20.006Z,2.33
2022-08-30T21:40:48.485Z,2.17
2022-08-30T21:43:16.071Z,1.87
2022-08-30T21:45:43.770Z,3.33
2022-08-30T21:48:11.658Z,4.00
2022-08-30T21:50:40.591Z,1.60
2022-08-30T21:53:07.228Z,1.80
2022-08-30T21:55:33.711Z,2.07
2022-08-30T21:58:00.269Z,1.70
2022-08-30T22:00:27.906Z,1.80
2022-08-30T22:02:54.594Z,1.60
2022-08-30T22:05:21.179Z,1.43
2022-08-30T22:07:47.779Z,1.93
2022-08-30T22:10:14.847Z,2.93
2022-08-30T22:12:41.687Z,1.70
2022-08-30T22:15:09.120Z,1.20
2022-08-30T22:17:35.674Z,1.63
2022-08-30T22:20:02.623Z,1.50
2022-08-30T22:22:29.134Z,3.53
2022-08-30T22:24:56.280Z,2.13
2022-08-30T22:27:22.764Z,2.17
2022-08-30T22:29:49.406Z,1.07
2022-08-30T22:32:17.486Z,2.50
2022-08-30T22:34:45.992Z,2.17
2022-08-30T22:37:12.862Z,1.77
2022-08-30T22:39:39.396Z,3.57
2022-08-30T22:42:06.164Z,1.97
2022-08-30T22:44:32.752Z,2.33
2022-08-30T22:47:02.570Z,3.37
2022-08-30T22:49:29.051Z,1.87
2022-08-30T22:51:55.581Z,1.40
2022-08-30T22:54:22.019Z,2.50
2022-08-30T22:56:49.869Z,1.53
2022-08-30T22:59:16.654Z,1.53
2022-08-30T23:01:43.327Z,2.80
2022-08-30T23:04:11.644Z,0.93
2022-08-30T23:06:38.717Z,2.73
2022-08-30T23:09:06.664Z,1.87
2022-08-30T23:11:34.218Z,1.27
2022-08-30T23:14:03.566Z,2.80
2022-08-30T23:16:30.892Z,1.27
2022-08-30T23:18:57.684Z,2.30
2022-08-30T23:21:27.691Z,1.37
2022-08-30T23:24:15.491Z,1.83
2022-08-30T23:27:03.112Z,2.03
2022-08-30T23:29:48.364Z,1.73
2022-08-30T23:32:35.564Z,5.50
2022-08-30T23:35:20.772Z,1.10
2022-08-30T23:38:13.039Z,2.97
2022-08-30T23:40:58.212Z,3.37
2022-08-30T23:43:43.847Z,1.40
2022-08-30T23:46:28.628Z,3.10
2022-08-30T23:49:16.622Z,1.57
2022-08-30T23:52:01.961Z,2.90
2022-08-30T23:54:47.108Z,2.80
2022-08-30T23:57:33.093Z,2.97
